Time;durP1;ratioP1;P1;durP2;ratioP2;P2;SDS_P1;SDS_P2;PMS_P1;PMS_P2;Temp;Humidity;BMP_temperature;BMP_pressure;BME280_temperature;BME280_humidity;BME280_pressure;Samples;Min_cycle;Max_cycle;Signal;HPM_P1;HPM_P2
2022/08/03 00:00:30;;;;;;;4.60;3.03;;;;;;;;;;4991977;28;20452;-77
2022/08/03 00:02:59;;;;;;;3.30;2.73;;;;;;;;;;4993286;28;20852;-76
2022/08/03 00:05:26;;;;;;;4.23;3.30;;;;;;;;;;4993927;28;20871;-76
2022/08/03 00:07:53;;;;;;;3.33;2.90;;;;;;;;;;4984224;28;20467;-76
2022/08/03 00:10:21;;;;;;;5.77;3.33;;;;;;;;;;4977771;28;20491;-75
2022/08/03 00:12:48;;;;;;;6.00;3.50;;;;;;;;;;4975617;28;20440;-76
2022/08/03 00:15:15;;;;;;;5.60;2.80;;;;;;;;;;4975901;28;20455;-77
2022/08/03 00:17:44;;;;;;;5.43;3.30;;;;;;;;;;4975734;28;20901;-76
2022/08/03 00:20:11;;;;;;;5.53;3.67;;;;;;;;;;4976038;28;20782;-75
2022/08/03 00:22:39;;;;;;;4.83;3.43;;;;;;;;;;4975938;28;20449;-75
2022/08/03 00:25:06;;;;;;;5.43;3.50;;;;;;;;;;4993373;28;20559;-76
2022/08/03 00:27:34;;;;;;;3.20;2.73;;;;;;;;;;4997302;28;20459;-76
2022/08/03 00:30:01;;;;;;;3.80;3.03;;;;;;;;;;4988178;28;20484;-75
2022/08/03 00:32:29;;;;;;;4.33;2.80;;;;;;;;;;4981459;28;20467;-75
2022/08/03 00:34:57;;;;;;;4.17;3.30;;;;;;;;;;4989741;28;20470;-75
2022/08/03 00:37:24;;;;;;;3.80;3.40;;;;;;;;;;4994672;28;20478;-77
2022/08/03 00:39:51;;;;;;;3.33;3.03;;;;;;;;;;4995006;28;20937;-76
2022/08/03 00:42:19;;;;;;;4.53;3.07;;;;;;;;;;4994813;28;20971;-76
2022/08/03 00:44:46;;;;;;;8.20;3.53;;;;;;;;;;4995277;28;20448;-75
2022/08/03 00:47:13;;;;;;;3.67;3.30;;;;;;;;;;4996027;28;20515;-77
2022/08/03 00:49:41;;;;;;;3.57;3.27;;;;;;;;;;4996692;28;20491;-77
2022/08/03 00:52:10;;;;;;;3.60;3.30;;;;;;;;;;4970339;28;20794;-75
2022/08/03 00:59:59;;;;;;;3.80;3.23;;;;;;;;;;4972640;28;20189;-75
2022/08/03 01:07:24;;;;;;;3.20;3.00;;;;;;;;;;4983978;28;20267;-76
2022/08/03 01:09:55;;;;;;;4.07;2.90;;;;;;;;;;4980672;28;20234;-76
2022/08/03 01:12:25;;;;;;;4.43;3.37;;;;;;;;;;4982670;28;20523;-77
2022/08/03 01:14:56;;;;;;;3.70;3.40;;;;;;;;;;4993464;28;20451;-76
2022/08/03 01:17:25;;;;;;;3.40;3.10;;;;;;;;;;4993849;28;20470;-77
2022/08/03 01:19:55;;;;;;;3.90;3.13;;;;;;;;;;4994223;28;20448;-75
2022/08/03 01:22:32;;;;;;;4.33;3.17;;;;;;;;;;4977587;28;20436;-76
2022/08/03 01:25:03;;;;;;;6.40;3.27;;;;;;;;;;4994512;28;20456;-76
2022/08/03 01:27:38;;;;;;;4.40;3.27;;;;;;;;;;4996002;28;20986;-75
2022/08/03 01:30:08;;;;;;;3.50;3.20;;;;;;;;;;4992851;28;20476;-77
2022/08/03 01:32:37;;;;;;;5.40;2.90;;;;;;;;;;4962856;28;20432;-76
2022/08/03 01:35:06;;;;;;;4.27;3.33;;;;;;;;;;4978385;28;20507;-76
2022/08/03 01:37:37;;;;;;;4.23;3.83;;;;;;;;;;4957015;28;20487;-77
2022/08/03 01:40:06;;;;;;;5.97;3.60;;;;;;;;;;4974276;28;20444;-75
2022/08/03 01:42:34;;;;;;;3.37;3.07;;;;;;;;;;4974221;28;20451;-76
2022/08/03 01:45:02;;;;;;;3.70;3.20;;;;;;;;;;4974954;28;20453;-76
2022/08/03 01:47:31;;;;;;;3.80;3.50;;;;;;;;;;4984415;28;20476;-75
2022/08/03 01:49:59;;;;;;;3.53;3.00;;;;;;;;;;4995876;28;20488;-76
2022/08/03 01:52:26;;;;;;;3.73;3.43;;;;;;;;;;4992850;28;20845;-75
2022/08/03 01:54:54;;;;;;;3.73;3.13;;;;;;;;;;4979528;28;20465;-76
2022/08/03 01:57:21;;;;;;;3.57;3.27;;;;;;;;;;4982903;28;20464;-76
2022/08/03 01:59:50;;;;;;;3.93;3.53;;;;;;;;;;4993140;28;20450;-76
2022/08/03 02:02:17;;;;;;;3.50;3.20;;;;;;;;;;4976002;28;20531;-75
2022/08/03 02:04:47;;;;;;;3.47;3.17;;;;;;;;;;4993298;28;20436;-76
2022/08/03 02:07:15;;;;;;;3.40;3.10;;;;;;;;;;4993756;28;20840;-75
2022/08/03 02:09:43;;;;;;;3.57;3.27;;;;;;;;;;4976760;28;20498;-75
2022/08/03 02:12:11;;;;;;;3.63;3.00;;;;;;;;;;4978305;28;20446;-76
2022/08/03 02:14:39;;;;;;;3.13;2.90;;;;;;;;;;4978076;28;20445;-76
2022/08/03 02:17:07;;;;;;;4.37;3.27;;;;;;;;;;4979308;28;20452;-76
2022/08/03 02:19:35;;;;;;;3.87;3.40;;;;;;;;;;4979145;28;20459;-76
2022/08/03 02:22:05;;;;;;;3.30;3.00;;;;;;;;;;4972983;28;20464;-76
2022/08/03 02:24:33;;;;;;;3.43;3.13;;;;;;;;;;4973529;28;20463;-75
2022/08/03 02:27:01;;;;;;;4.00;3.60;;;;;;;;;;4973606;28;20457;-75
2022/08/03 02:29:32;;;;;;;3.50;3.20;;;;;;;;;;4973966;28;20476;-76
2022/08/03 02:32:03;;;;;;;4.20;3.27;;;;;;;;;;4979751;28;20451;-76
2022/08/03 02:34:32;;;;;;;3.67;3.37;;;;;;;;;;4994213;28;20479;-75
2022/08/03 02:37:00;;;;;;;4.23;3.30;;;;;;;;;;4994457;28;20464;-76
2022/08/03 02:39:29;;;;;;;3.47;3.17;;;;;;;;;;4980326;28;20438;-75
2022/08/03 02:42:01;;;;;;;4.30;3.50;;;;;;;;;;4978685;28;20922;-77
2022/08/03 02:44:28;;;;;;;5.67;3.40;;;;;;;;;;4972720;28;20453;-77
2022/08/03 02:46:56;;;;;;;3.80;3.50;;;;;;;;;;4972709;28;20479;-76
2022/08/03 02:49:25;;;;;;;3.67;3.37;;;;;;;;;;4972871;28;20486;-76
2022/08/03 02:51:53;;;;;;;3.27;3.00;;;;;;;;;;4973797;28;20455;-74
2022/08/03 02:54:21;;;;;;;3.90;3.50;;;;;;;;;;4977268;28;20466;-75
2022/08/03 02:56:50;;;;;;;4.80;3.73;;;;;;;;;;4994376;28;20563;-76
2022/08/03 02:59:18;;;;;;;3.27;2.97;;;;;;;;;;4994457;28;20447;-78
2022/08/03 03:01:46;;;;;;;3.43;3.10;;;;;;;;;;4981151;28;20442;-76
2022/08/03 03:04:13;;;;;;;3.83;3.53;;;;;;;;;;4978720;28;20433;-76
2022/08/03 03:06:40;;;;;;;3.40;3.10;;;;;;;;;;4973744;28;20467;-75
2022/08/03 03:09:08;;;;;;;3.80;3.50;;;;;;;;;;4992041;28;20896;-76
2022/08/03 03:11:37;;;;;;;3.70;3.40;;;;;;;;;;4974975;28;20448;-75
2022/08/03 03:14:06;;;;;;;3.43;3.10;;;;;;;;;;4992731;28;20444;-76
2022/08/03 03:16:34;;;;;;;3.70;3.40;;;;;;;;;;4975190;28;20458;-76
2022/08/03 03:19:03;;;;;;;3.30;3.00;;;;;;;;;;4994480;28;20447;-76
2022/08/03 03:21:31;;;;;;;3.60;3.30;;;;;;;;;;4994308;28;20440;-76
2022/08/03 03:23:58;;;;;;;3.67;3.37;;;;;;;;;;4983661;28;20440;-76
2022/08/03 03:26:26;;;;;;;4.80;3.73;;;;;;;;;;4978342;28;20453;-75
2022/08/03 03:28:53;;;;;;;3.60;3.30;;;;;;;;;;4973899;28;20441;-75
2022/08/03 03:31:22;;;;;;;4.20;3.60;;;;;;;;;;4972466;28;20859;-76
2022/08/03 03:33:49;;;;;;;3.57;3.27;;;;;;;;;;4972846;28;20458;-76
2022/08/03 03:36:17;;;;;;;3.80;3.30;;;;;;;;;;4973011;28;20504;-75
2022/08/03 03:38:44;;;;;;;3.73;3.43;;;;;;;;;;4972983;28;20827;-75
2022/08/03 03:41:12;;;;;;;3.20;2.90;;;;;;;;;;4991825;28;20460;-76
2022/08/03 03:43:39;;;;;;;3.97;3.60;;;;;;;;;;4993822;28;20444;-76
2022/08/03 03:46:06;;;;;;;4.20;3.90;;;;;;;;;;4986963;28;20814;-77
2022/08/03 03:48:35;;;;;;;3.40;3.17;;;;;;;;;;4982307;28;20486;-75
2022/08/03 03:51:03;;;;;;;3.80;3.43;;;;;;;;;;4989214;28;20479;-77
2022/08/03 03:53:30;;;;;;;3.57;3.27;;;;;;;;;;4995708;28;20449;-76
2022/08/03 03:55:57;;;;;;;3.40;3.10;;;;;;;;;;4995450;28;20812;-76
2022/08/03 03:58:24;;;;;;;3.73;3.43;;;;;;;;;;4996133;28;20543;-78
2022/08/03 04:00:52;;;;;;;4.20;3.80;;;;;;;;;;4996512;28;20477;-76
2022/08/03 04:03:19;;;;;;;3.87;3.53;;;;;;;;;;4996654;28;20811;-76
2022/08/03 04:11:13;;;;;;;3.40;3.10;;;;;;;;;;4980615;28;20526;-77
2022/08/03 04:13:43;;;;;;;3.20;3.00;;;;;;;;;;4989411;28;20432;-76
2022/08/03 04:16:12;;;;;;;5.10;4.13;;;;;;;;;;4995199;28;20471;-76
2022/08/03 04:18:41;;;;;;;4.50;3.20;;;;;;;;;;4995245;28;20546;-75
2022/08/03 04:21:11;;;;;;;4.17;3.77;;;;;;;;;;4995630;28;20443;-78
2022/08/03 04:23:40;;;;;;;4.10;3.40;;;;;;;;;;4996032;28;20450;-76
2022/08/03 04:26:09;;;;;;;3.57;3.27;;;;;;;;;;4996409;28;20494;-76
2022/08/03 04:28:36;;;;;;;4.73;3.37;;;;;;;;;;4997205;28;20844;-75
2022/08/03 04:31:04;;;;;;;3.80;3.50;;;;;;;;;;4991731;28;21085;-76
2022/08/03 04:33:32;;;;;;;3.67;3.37;;;;;;;;;;4981366;28;20787;-76
2022/08/03 04:36:02;;;;;;;3.67;3.37;;;;;;;;;;4978489;28;20551;-75
2022/08/03 04:38:32;;;;;;;4.93;3.70;;;;;;;;;;4975686;28;20441;-75
2022/08/03 04:41:00;;;;;;;3.37;3.07;;;;;;;;;;4975549;28;20453;-76
2022/08/03 04:43:28;;;;;;;3.30;3.10;;;;;;;;;;4975474;28;20942;-76
2022/08/03 04:45:56;;;;;;;3.97;2.87;;;;;;;;;;4975805;28;20459;-77
2022/08/03 04:48:23;;;;;;;3.90;3.13;;;;;;;;;;4989038;28;20448;-75
2022/08/03 04:50:50;;;;;;;3.70;3.40;;;;;;;;;;4997035;28;20583;-76
2022/08/03 04:53:17;;;;;;;3.43;3.13;;;;;;;;;;4992995;28;20945;-74
2022/08/03 04:55:46;;;;;;;3.40;3.10;;;;;;;;;;4980924;28;20632;-75
2022/08/03 04:58:13;;;;;;;4.00;3.70;;;;;;;;;;4984048;28;20436;-76
2022/08/03 05:00:41;;;;;;;3.83;3.37;;;;;;;;;;4994299;28;20547;-75
2022/08/03 05:03:08;;;;;;;3.77;3.20;;;;;;;;;;4994692;28;20538;-75
2022/08/03 05:05:35;;;;;;;3.90;3.50;;;;;;;;;;4994598;28;20450;-74
2022/08/03 05:08:02;;;;;;;3.57;3.27;;;;;;;;;;4994885;28;20482;-74
2022/08/03 05:10:29;;;;;;;4.77;3.80;;;;;;;;;;4994947;28;20483;-74
2022/08/03 05:12:58;;;;;;;5.60;3.90;;;;;;;;;;4996297;28;20443;-76
2022/08/03 05:15:25;;;;;;;3.93;3.63;;;;;;;;;;4985476;28;20444;-77
2022/08/03 05:17:52;;;;;;;3.57;3.27;;;;;;;;;;4980388;28;20767;-78
2022/08/03 05:20:20;;;;;;;3.60;3.30;;;;;;;;;;4976100;28;20822;-79
2022/08/03 05:22:47;;;;;;;4.63;3.47;;;;;;;;;;4974488;28;20480;-83
2022/08/03 05:25:14;;;;;;;3.80;3.07;;;;;;;;;;4974846;28;20440;-76
2022/08/03 05:27:41;;;;;;;4.03;3.20;;;;;;;;;;4974955;28;20500;-76
2022/08/03 05:30:10;;;;;;;5.13;3.83;;;;;;;;;;4975028;28;20846;-76
2022/08/03 05:32:37;;;;;;;4.13;3.73;;;;;;;;;;4994113;28;20458;-75
2022/08/03 05:35:05;;;;;;;4.20;3.27;;;;;;;;;;4996101;28;20439;-75
2022/08/03 05:37:32;;;;;;;4.10;3.73;;;;;;;;;;4992186;28;20823;-76
2022/08/03 05:40:00;;;;;;;3.60;3.30;;;;;;;;;;4979838;28;20510;-75
2022/08/03 05:42:27;;;;;;;3.77;3.37;;;;;;;;;;4977805;28;20445;-75
2022/08/03 05:44:54;;;;;;;3.83;3.40;;;;;;;;;;4974392;28;20532;-76
2022/08/03 05:47:22;;;;;;;4.10;3.30;;;;;;;;;;4974023;28;20479;-75
2022/08/03 05:49:50;;;;;;;3.53;3.20;;;;;;;;;;4974396;28;20449;-74
2022/08/03 05:52:17;;;;;;;3.60;3.30;;;;;;;;;;4975137;28;20476;-75
2022/08/03 05:54:44;;;;;;;4.20;3.80;;;;;;;;;;4984252;28;20463;-74
2022/08/03 05:57:11;;;;;;;3.70;3.40;;;;;;;;;;4995769;28;20478;-75
2022/08/03 05:59:39;;;;;;;3.17;2.97;;;;;;;;;;4995566;28;20527;-76
2022/08/03 06:02:06;;;;;;;3.40;3.10;;;;;;;;;;4980918;28;20437;-75
2022/08/03 06:04:34;;;;;;;3.53;3.23;;;;;;;;;;4979741;28;20791;-74
2022/08/03 06:07:02;;;;;;;3.10;2.90;;;;;;;;;;4973706;28;20540;-75
2022/08/03 06:09:29;;;;;;;3.23;2.93;;;;;;;;;;4972779;28;20853;-77
2022/08/03 06:11:56;;;;;;;4.43;3.70;;;;;;;;;;4973823;28;21013;-76
2022/08/03 06:14:24;;;;;;;4.07;3.27;;;;;;;;;;4974580;28;20451;-76
2022/08/03 06:16:51;;;;;;;3.33;3.00;;;;;;;;;;4976223;28;20465;-75
2022/08/03 06:19:18;;;;;;;3.97;3.67;;;;;;;;;;4995169;28;20439;-75
2022/08/03 06:21:46;;;;;;;4.00;3.27;;;;;;;;;;4994916;28;20452;-75
2022/08/03 06:24:14;;;;;;;4.83;3.60;;;;;;;;;;4987643;28;20436;-75
2022/08/03 06:26:41;;;;;;;3.40;3.10;;;;;;;;;;4979361;28;20479;-74
2022/08/03 06:29:08;;;;;;;4.27;3.30;;;;;;;;;;4976031;28;20946;-75
2022/08/03 06:31:36;;;;;;;4.17;3.07;;;;;;;;;;4973210;28;20484;-75
2022/08/03 06:34:04;;;;;;;4.50;3.30;;;;;;;;;;4973288;28;20927;-75
2022/08/03 06:36:31;;;;;;;3.40;3.10;;;;;;;;;;4973361;28;20560;-78
2022/08/03 06:39:01;;;;;;;3.97;3.57;;;;;;;;;;4974271;28;20531;-77
2022/08/03 06:41:28;;;;;;;3.83;3.53;;;;;;;;;;4971673;28;20543;-79
2022/08/03 06:43:55;;;;;;;3.30;3.00;;;;;;;;;;4994696;28;20888;-76
2022/08/03 06:46:22;;;;;;;3.50;3.20;;;;;;;;;;4991855;28;20471;-76
2022/08/03 06:48:50;;;;;;;3.77;3.43;;;;;;;;;;4978726;28;20443;-76
2022/08/03 06:51:17;;;;;;;5.00;2.97;;;;;;;;;;4982298;28;20556;-77
2022/08/03 06:53:44;;;;;;;5.60;3.40;;;;;;;;;;4991955;28;20447;-76
2022/08/03 06:56:13;;;;;;;7.57;3.60;;;;;;;;;;4992233;28;20475;-78
2022/08/03 06:58:40;;;;;;;5.40;3.10;;;;;;;;;;4992419;28;20960;-78
2022/08/03 07:01:07;;;;;;;5.60;3.30;;;;;;;;;;4992892;28;20530;-77
2022/08/03 07:03:34;;;;;;;5.13;2.70;;;;;;;;;;4992770;28;20460;-79
2022/08/03 07:06:02;;;;;;;3.93;3.03;;;;;;;;;;4994511;28;20554;-79
2022/08/03 07:08:29;;;;;;;2.87;2.67;;;;;;;;;;4994424;28;20440;-78
2022/08/03 07:10:56;;;;;;;3.27;2.97;;;;;;;;;;4980094;28;20480;-77
2022/08/03 07:13:24;;;;;;;4.03;3.20;;;;;;;;;;4978606;28;20437;-81
2022/08/03 07:15:53;;;;;;;7.50;3.77;;;;;;;;;;4972425;28;20444;-79
2022/08/03 07:18:20;;;;;;;4.23;3.43;;;;;;;;;;4972873;28;20444;-76
2022/08/03 07:20:47;;;;;;;3.50;3.20;;;;;;;;;;4972543;28;21009;-79
2022/08/03 07:23:14;;;;;;;3.77;3.47;;;;;;;;;;4973676;28;21025;-78
2022/08/03 07:25:41;;;;;;;3.60;3.00;;;;;;;;;;4975274;28;20958;-75
2022/08/03 07:28:09;;;;;;;7.47;3.40;;;;;;;;;;4994196;28;20534;-75
2022/08/03 07:30:37;;;;;;;5.20;3.33;;;;;;;;;;4993999;28;20506;-78
2022/08/03 07:33:04;;;;;;;3.30;3.00;;;;;;;;;;4984503;28;20542;-74
2022/08/03 07:35:31;;;;;;;3.57;3.20;;;;;;;;;;4977909;28;20435;-75
2022/08/03 07:37:59;;;;;;;3.27;2.97;;;;;;;;;;4986801;28;20472;-75
2022/08/03 07:40:26;;;;;;;7.10;3.03;;;;;;;;;;4991881;28;20808;-75
2022/08/03 07:42:53;;;;;;;3.73;3.20;;;;;;;;;;4991946;28;20523;-76
2022/08/03 07:45:22;;;;;;;3.33;3.03;;;;;;;;;;4992291;28;20462;-78
2022/08/03 07:47:50;;;;;;;3.50;3.20;;;;;;;;;;4992223;28;20475;-78
2022/08/03 07:50:17;;;;;;;5.80;3.57;;;;;;;;;;4993270;28;20494;-77
2022/08/03 07:52:48;;;;;;;2.53;2.33;;;;;;;;;;4993967;28;20495;-75
2022/08/03 07:55:15;;;;;;;2.70;2.50;;;;;;;;;;4989024;28;20433;-78
2022/08/03 07:57:43;;;;;;;3.20;2.90;;;;;;;;;;4960694;28;20451;-78
2022/08/03 08:00:14;;;;;;;3.33;3.03;;;;;;;;;;4975688;28;20441;-76
2022/08/03 08:02:41;;;;;;;3.40;3.10;;;;;;;;;;4955112;28;20887;-76
2022/08/03 08:05:11;;;;;;;5.53;3.17;;;;;;;;;;4972304;28;20456;-77
2022/08/03 08:10:25;;;;;;;2.87;2.60;;;;;;;;;;4992331;28;20466;-76
2022/08/03 08:12:53;;;;;;;4.13;2.77;;;;;;;;;;5010080;28;20573;-74
2022/08/03 08:15:20;;;;;;;4.20;2.70;;;;;;;;;;5006677;28;20454;-76
2022/08/03 08:17:48;;;;;;;3.40;2.40;;;;;;;;;;5025088;28;20454;-76
2022/08/03 08:20:18;;;;;;;3.53;2.50;;;;;;;;;;5013402;28;20439;-76
2022/08/03 08:22:45;;;;;;;3.53;2.80;;;;;;;;;;5013527;28;20446;-75
2022/08/03 08:25:12;;;;;;;3.97;2.70;;;;;;;;;;5031208;28;20545;-76
2022/08/03 08:27:42;;;;;;;3.87;2.90;;;;;;;;;;5031582;28;20461;-76
2022/08/03 08:30:09;;;;;;;2.87;2.67;;;;;;;;;;5031456;28;20470;-76
2022/08/03 08:32:37;;;;;;;2.97;2.67;;;;;;;;;;5032826;28;21014;-75
2022/08/03 08:35:04;;;;;;;3.03;2.50;;;;;;;;;;5035876;28;20448;-75
2022/08/03 08:37:33;;;;;;;4.70;2.93;;;;;;;;;;5029514;28;20537;-76
2022/08/03 08:40:00;;;;;;;2.50;2.30;;;;;;;;;;5030796;28;20440;-76
2022/08/03 08:42:28;;;;;;;5.77;3.07;;;;;;;;;;5033438;28;20446;-75
2022/08/03 08:44:55;;;;;;;2.83;2.43;;;;;;;;;;5034207;28;20504;-76
2022/08/03 08:47:25;;;;;;;3.30;2.70;;;;;;;;;;5034257;28;20473;-75
2022/08/03 08:49:53;;;;;;;4.70;2.30;;;;;;;;;;5034622;28;20442;-76
2022/08/03 08:52:21;;;;;;;2.90;2.67;;;;;;;;;;5017042;28;20481;-75
2022/08/03 08:54:49;;;;;;;2.97;2.67;;;;;;;;;;5036483;28;20452;-75
2022/08/03 08:57:18;;;;;;;2.80;2.50;;;;;;;;;;5035979;28;20470;-75
2022/08/03 08:59:45;;;;;;;4.60;2.40;;;;;;;;;;5030702;28;20529;-76
2022/08/03 09:02:13;;;;;;;3.83;2.23;;;;;;;;;;5029056;28;20453;-75
2022/08/03 09:04:40;;;;;;;2.60;2.40;;;;;;;;;;5032976;28;20449;-76
2022/08/03 09:07:08;;;;;;;2.80;2.30;;;;;;;;;;5033918;28;20927;-77
2022/08/03 09:09:35;;;;;;;3.13;2.37;;;;;;;;;;5033563;28;20466;-76
2022/08/03 09:12:03;;;;;;;5.60;2.33;;;;;;;;;;5034113;28;20497;-75
2022/08/03 09:14:31;;;;;;;5.30;2.07;;;;;;;;;;5033408;28;20438;-77
2022/08/03 09:17:00;;;;;;;3.30;2.07;;;;;;;;;;5035464;28;20466;-76
2022/08/03 09:19:28;;;;;;;6.23;2.50;;;;;;;;;;5018805;28;20476;-76
2022/08/03 09:22:11;;;;;;;5.73;2.47;;;;;;;;;;5031584;28;20430;-76
2022/08/03 09:24:39;;;;;;;4.90;2.63;;;;;;;;;;5013476;28;20842;-76
2022/08/03 09:27:13;;;;;;;4.30;2.53;;;;;;;;;;5031796;28;20460;-77
2022/08/03 09:29:42;;;;;;;2.80;2.50;;;;;;;;;;5033332;28;20442;-77
2022/08/03 09:32:11;;;;;;;3.67;2.60;;;;;;;;;;5033161;28;21013;-75
2022/08/03 09:34:38;;;;;;;3.30;2.37;;;;;;;;;;5033929;28;20537;-77
2022/08/03 09:37:13;;;;;;;2.70;2.20;;;;;;;;;;5033228;28;20462;-76
2022/08/03 09:39:40;;;;;;;2.80;2.00;;;;;;;;;;5015324;28;20447;-77
2022/08/03 09:42:09;;;;;;;2.77;2.00;;;;;;;;;;5015614;28;20445;-77
2022/08/03 09:44:37;;;;;;;2.20;2.00;;;;;;;;;;5021483;28;20442;-76
2022/08/03 09:47:05;;;;;;;4.27;2.50;;;;;;;;;;5028500;28;20446;-75
2022/08/03 09:49:33;;;;;;;4.60;2.30;;;;;;;;;;5030447;28;20519;-77
2022/08/03 09:52:02;;;;;;;2.60;2.40;;;;;;;;;;5032191;28;20487;-78
2022/08/03 09:54:31;;;;;;;3.00;1.90;;;;;;;;;;5032657;28;20442;-77
2022/08/03 09:57:00;;;;;;;4.83;2.10;;;;;;;;;;5064925;22;20889;-77
2022/08/03 09:59:29;;;;;;;3.47;1.83;;;;;;;;;;5053122;28;20532;-75
2022/08/03 10:01:57;;;;;;;7.10;2.00;;;;;;;;;;5043777;28;21006;-79
2022/08/03 10:04:25;;;;;;;3.00;2.00;;;;;;;;;;5036277;28;20802;-78
2022/08/03 10:07:05;;;;;;;2.13;1.93;;;;;;;;;;5034258;28;20460;-76
2022/08/03 10:09:32;;;;;;;2.30;1.57;;;;;;;;;;5032479;28;21014;-77
2022/08/03 10:12:07;;;;;;;2.27;1.97;;;;;;;;;;5032586;28;20470;-75
2022/08/03 10:14:36;;;;;;;4.13;1.70;;;;;;;;;;5033073;28;20457;-76
2022/08/03 10:17:04;;;;;;;2.90;1.83;;;;;;;;;;5032523;28;20975;-75
2022/08/03 10:19:31;;;;;;;3.43;2.00;;;;;;;;;;5053019;28;20854;-76
2022/08/03 10:22:01;;;;;;;4.90;2.73;;;;;;;;;;5054483;28;20445;-76
2022/08/03 10:24:30;;;;;;;1.80;1.70;;;;;;;;;;5045952;28;20854;-75
2022/08/03 10:27:00;;;;;;;2.43;1.90;;;;;;;;;;5037668;28;20449;-75
2022/08/03 10:29:28;;;;;;;1.60;1.50;;;;;;;;;;5034389;28;20536;-77
2022/08/03 10:31:59;;;;;;;2.93;1.90;;;;;;;;;;5031835;28;20486;-76
2022/08/03 10:34:28;;;;;;;3.07;1.80;;;;;;;;;;5032311;28;20446;-77
2022/08/03 10:36:57;;;;;;;2.50;2.27;;;;;;;;;;5031159;28;20462;-75
2022/08/03 10:39:28;;;;;;;2.50;2.30;;;;;;;;;;5032612;28;20545;-74
2022/08/03 10:41:57;;;;;;;3.60;2.00;;;;;;;;;;5049954;28;20560;-75
2022/08/03 10:44:25;;;;;;;2.20;1.93;;;;;;;;;;5053866;28;20800;-76
2022/08/03 10:46:53;;;;;;;2.70;2.10;;;;;;;;;;5047453;28;20481;-75
2022/08/03 10:49:22;;;;;;;3.43;2.00;;;;;;;;;;5037605;28;20422;-75
2022/08/03 10:51:49;;;;;;;1.93;1.53;;;;;;;;;;5043819;28;20460;-76
2022/08/03 10:54:31;;;;;;;2.53;2.13;;;;;;;;;;5051580;28;20874;-76
2022/08/03 10:59:54;;;;;;;3.00;2.00;;;;;;;;;;5071024;28;20432;-76
2022/08/03 11:02:22;;;;;;;2.77;2.40;;;;;;;;;;5056682;28;20436;-75
2022/08/03 11:05:10;;;;;;;2.77;2.10;;;;;;;;;;5072878;28;20543;-76
2022/08/03 11:07:37;;;;;;;2.63;1.90;;;;;;;;;;5059055;28;20830;-77
2022/08/03 11:10:05;;;;;;;2.30;1.90;;;;;;;;;;5063829;28;20447;-76
2022/08/03 11:12:33;;;;;;;2.40;2.00;;;;;;;;;;5057471;28;20504;-76
2022/08/03 11:15:01;;;;;;;3.10;2.00;;;;;;;;;;5053053;28;20444;-76
2022/08/03 11:17:28;;;;;;;3.73;1.93;;;;;;;;;;5033537;28;20496;-76
2022/08/03 11:19:57;;;;;;;3.30;1.93;;;;;;;;;;5051818;28;20798;-76
2022/08/03 11:22:24;;;;;;;3.93;1.90;;;;;;;;;;5051890;28;20965;-76
2022/08/03 11:24:59;;;;;;;2.33;1.97;;;;;;;;;;5051926;28;20455;-77
2022/08/03 11:27:27;;;;;;;3.60;2.10;;;;;;;;;;5071249;28;20992;-77
2022/08/03 11:29:55;;;;;;;2.23;1.90;;;;;;;;;;5073493;28;20542;-76
2022/08/03 11:32:38;;;;;;;2.07;1.87;;;;;;;;;;5065585;28;20533;-76
2022/08/03 11:35:11;;;;;;;3.23;1.73;;;;;;;;;;5041975;28;20439;-76
2022/08/03 11:37:58;;;;;;;2.43;2.00;;;;;;;;;;5048927;28;20467;-76
2022/08/03 11:40:33;;;;;;;7.83;2.30;;;;;;;;;;5056473;28;20444;-77
2022/08/03 11:43:00;;;;;;;2.30;2.10;;;;;;;;;;5071400;28;20448;-76
2022/08/03 11:45:28;;;;;;;2.20;2.00;;;;;;;;;;5072109;28;20436;-76
2022/08/03 11:48:00;;;;;;;2.33;2.13;;;;;;;;;;5071040;28;20459;-72
2022/08/03 11:50:36;;;;;;;3.00;2.00;;;;;;;;;;5073171;28;20440;-76
2022/08/03 11:53:03;;;;;;;4.50;2.13;;;;;;;;;;5073054;28;20475;-76
2022/08/03 11:55:31;;;;;;;2.20;2.00;;;;;;;;;;5062760;28;20516;-75
2022/08/03 11:57:59;;;;;;;2.57;1.90;;;;;;;;;;5055930;28;20460;-75
2022/08/03 12:00:28;;;;;;;1.77;1.50;;;;;;;;;;5034730;28;20845;-75
2022/08/03 12:02:57;;;;;;;4.70;2.03;;;;;;;;;;5051267;28;20448;-75
2022/08/03 12:05:35;;;;;;;4.23;2.37;;;;;;;;;;5051571;28;20445;-75
2022/08/03 12:08:02;;;;;;;2.07;1.83;;;;;;;;;;5053933;28;20460;-76
2022/08/03 12:10:29;;;;;;;5.30;2.00;;;;;;;;;;5054942;28;21033;-75
2022/08/03 12:12:57;;;;;;;2.80;2.13;;;;;;;;;;5076501;28;20553;-75
2022/08/03 12:15:26;;;;;;;3.23;1.70;;;;;;;;;;5059236;28;20937;-75
2022/08/03 12:17:53;;;;;;;4.37;2.37;;;;;;;;;;5067760;28;20452;-75
2022/08/03 12:20:22;;;;;;;2.30;1.90;;;;;;;;;;5060553;28;20441;-75
2022/08/03 12:22:50;;;;;;;2.83;2.17;;;;;;;;;;5068923;28;20897;-75
2022/08/03 12:25:22;;;;;;;2.50;1.90;;;;;;;;;;5074440;28;20812;-76
2022/08/03 12:27:49;;;;;;;3.50;2.07;;;;;;;;;;5074580;28;21005;-75
2022/08/03 12:30:17;;;;;;;3.00;2.00;;;;;;;;;;5074728;28;21029;-76
2022/08/03 12:32:44;;;;;;;5.97;2.00;;;;;;;;;;5074866;28;20476;-75
2022/08/03 12:35:11;;;;;;;2.20;1.80;;;;;;;;;;5075500;28;20534;-76
2022/08/03 12:37:39;;;;;;;2.00;1.80;;;;;;;;;;5076410;28;20545;-75
2022/08/03 12:40:09;;;;;;;2.70;2.00;;;;;;;;;;5071973;28;20921;-74
2022/08/03 12:42:38;;;;;;;3.00;1.87;;;;;;;;;;5060237;28;21054;-75
2022/08/03 12:45:20;;;;;;;1.87;1.60;;;;;;;;;;5039895;28;20429;-75
2022/08/03 12:47:51;;;;;;;6.17;2.00;;;;;;;;;;5038669;28;20467;-75
2022/08/03 12:50:24;;;;;;;2.17;1.67;;;;;;;;;;5054222;28;20437;-76
2022/08/03 12:52:51;;;;;;;2.10;1.70;;;;;;;;;;5054184;28;20487;-75
2022/08/03 12:55:21;;;;;;;2.83;2.07;;;;;;;;;;5054741;28;20445;-75
2022/08/03 12:57:48;;;;;;;2.60;2.23;;;;;;;;;;5069467;28;20480;-75
2022/08/03 13:00:17;;;;;;;2.10;1.73;;;;;;;;;;5076083;28;20432;-75
2022/08/03 13:02:44;;;;;;;3.40;2.00;;;;;;;;;;5054197;28;20432;-75
2022/08/03 13:05:12;;;;;;;2.20;2.00;;;;;;;;;;5059550;28;20861;-74
2022/08/03 13:07:41;;;;;;;2.20;2.00;;;;;;;;;;5062341;28;20478;-76
2022/08/03 13:10:10;;;;;;;2.37;2.00;;;;;;;;;;5073392;28;20440;-74
2022/08/03 13:12:48;;;;;;;5.60;2.00;;;;;;;;;;5055749;28;20563;-75
2022/08/03 13:15:16;;;;;;;2.37;2.00;;;;;;;;;;5073794;28;20478;-75
2022/08/03 13:17:43;;;;;;;2.80;2.10;;;;;;;;;;5074064;28;20611;-76
2022/08/03 13:20:11;;;;;;;4.70;1.83;;;;;;;;;;5073436;28;20539;-75
2022/08/03 13:22:38;;;;;;;2.10;1.53;;;;;;;;;;5064453;28;20866;-75
2022/08/03 13:25:06;;;;;;;2.10;1.77;;;;;;;;;;5059298;28;20443;-76
2022/08/03 13:27:33;;;;;;;2.20;1.77;;;;;;;;;;5054617;28;20970;-76
2022/08/03 13:30:02;;;;;;;2.33;1.70;;;;;;;;;;5053287;28;20487;-76
2022/08/03 13:32:29;;;;;;;2.40;1.80;;;;;;;;;;5053133;28;21021;-77
2022/08/03 13:34:57;;;;;;;3.60;1.80;;;;;;;;;;5054054;28;20997;-77
2022/08/03 13:37:24;;;;;;;5.40;2.07;;;;;;;;;;5053400;28;20938;-77
2022/08/03 13:39:51;;;;;;;1.77;1.60;;;;;;;;;;5072967;28;20467;-74
2022/08/03 13:42:18;;;;;;;2.23;1.70;;;;;;;;;;5075083;28;20535;-75
2022/08/03 13:44:45;;;;;;;2.60;1.97;;;;;;;;;;5070547;28;20454;-74
2022/08/03 13:47:14;;;;;;;2.30;2.10;;;;;;;;;;5058811;28;20452;-77
2022/08/03 13:49:41;;;;;;;3.07;1.90;;;;;;;;;;5063862;28;20432;-74
2022/08/03 13:52:08;;;;;;;3.70;1.90;;;;;;;;;;5072705;28;20440;-76
2022/08/03 13:54:36;;;;;;;1.93;1.80;;;;;;;;;;5073167;28;20612;-76
2022/08/03 13:57:03;;;;;;;2.70;1.90;;;;;;;;;;5068374;28;20476;-74
2022/08/03 13:59:30;;;;;;;2.00;1.70;;;;;;;;;;5069343;28;20531;-76
2022/08/03 14:01:57;;;;;;;2.50;1.77;;;;;;;;;;5073342;28;20445;-77
2022/08/03 14:04:26;;;;;;;2.43;1.70;;;;;;;;;;5074729;28;20468;-75
2022/08/03 14:06:53;;;;;;;2.40;1.77;;;;;;;;;;5074136;28;20474;-75
2022/08/03 14:09:20;;;;;;;2.33;1.90;;;;;;;;;;5058339;28;20444;-74
2022/08/03 14:11:47;;;;;;;2.70;1.67;;;;;;;;;;5058404;28;20469;-76
2022/08/03 14:14:15;;;;;;;1.60;1.50;;;;;;;;;;5051716;28;20495;-76
2022/08/03 14:16:42;;;;;;;1.60;1.50;;;;;;;;;;5052270;28;20546;-75
2022/08/03 14:19:09;;;;;;;5.53;1.87;;;;;;;;;;5052478;28;20447;-75
2022/08/03 14:21:38;;;;;;;1.97;1.50;;;;;;;;;;5052931;28;20471;-76
2022/08/03 14:24:05;;;;;;;3.80;2.20;;;;;;;;;;5057982;28;20460;-76
2022/08/03 14:26:32;;;;;;;1.83;1.60;;;;;;;;;;5074274;28;20470;-75
2022/08/03 14:29:00;;;;;;;2.57;1.97;;;;;;;;;;5074346;28;20447;-74
2022/08/03 14:31:27;;;;;;;2.33;1.80;;;;;;;;;;5060230;28;20955;-74
2022/08/03 14:33:54;;;;;;;3.53;1.93;;;;;;;;;;5057572;28;20480;-76
2022/08/03 14:36:21;;;;;;;2.33;1.80;;;;;;;;;;5069636;28;20452;-76
2022/08/03 14:38:50;;;;;;;2.90;1.90;;;;;;;;;;5071487;28;20955;-76
2022/08/03 14:41:17;;;;;;;4.57;1.87;;;;;;;;;;5071723;28;20867;-76
2022/08/03 14:43:44;;;;;;;3.40;1.90;;;;;;;;;;5072290;28;20444;-75
2022/08/03 14:46:11;;;;;;;2.73;2.00;;;;;;;;;;5071096;28;20464;-76
2022/08/03 14:48:47;;;;;;;2.60;2.07;;;;;;;;;;5055925;28;20940;-75
2022/08/03 14:51:15;;;;;;;3.27;2.00;;;;;;;;;;5057125;28;20793;-76
2022/08/03 14:53:43;;;;;;;2.77;2.03;;;;;;;;;;5052054;28;20476;-75
2022/08/03 14:56:11;;;;;;;3.00;2.30;;;;;;;;;;5048803;28;21069;-76
2022/08/03 14:58:39;;;;;;;3.10;1.90;;;;;;;;;;5031836;28;20442;-77
2022/08/03 15:01:07;;;;;;;2.10;1.63;;;;;;;;;;5032752;28;20438;-77
2022/08/03 15:03:34;;;;;;;2.40;1.83;;;;;;;;;;5031622;28;20445;-76
2022/08/03 15:06:01;;;;;;;2.47;1.90;;;;;;;;;;5014013;28;20556;-75
2022/08/03 15:08:29;;;;;;;1.90;1.60;;;;;;;;;;5014133;28;20427;-74
2022/08/03 15:10:57;;;;;;;2.80;2.10;;;;;;;;;;5020483;28;20433;-78